Time;durP1;ratioP1;P1;durP2;ratioP2;P2;SDS_P1;SDS_P2;PMS_P1;PMS_P2;Temp;Humidity;BMP_temperature;BMP_pressure;BME280_temperature;BME280_humidity;BME280_pressure;Samples;Min_cycle;Max_cycle;Signal;HPM_P1;HPM_P2
2022/01/21 00:00:29;;;;;;;5.40;3.97;;;2.80;99.90;;;;;;5033789;28;20437;-88
2022/01/21 00:02:56;;;;;;;6.70;5.20;;;2.70;99.90;;;;;;5045599;28;20472;-88
2022/01/21 00:05:23;;;;;;;4.17;2.83;;;2.70;99.90;;;;;;5027006;28;20450;-88
2022/01/21 00:07:51;;;;;;;5.78;3.30;;;2.60;99.90;;;;;;5028386;28;20830;-87
2022/01/21 00:10:18;;;;;;;9.27;3.37;;;2.50;99.90;;;;;;5033842;28;20204;-87
2022/01/21 00:12:47;;;;;;;6.30;3.30;;;2.50;99.90;;;;;;5034370;28;20456;-88
2022/01/21 00:15:13;;;;;;;7.60;4.33;;;2.60;99.90;;;;;;5020929;28;20511;-87
2022/01/21 00:17:40;;;;;;;7.37;3.20;;;2.50;99.90;;;;;;5021986;28;20452;-86
2022/01/21 00:31:06;;;;;;;10.38;3.17;;;2.40;99.90;;;;;;5013606;28;20246;-85
2022/01/21 00:33:33;;;;;;;14.50;3.10;;;2.40;99.90;;;;;;5018026;28;20202;-86
2022/01/21 00:35:59;;;;;;;6.63;3.80;;;2.40;99.90;;;;;;5013782;28;20474;-85
2022/01/21 00:38:30;;;;;;;7.30;4.45;;;2.40;99.90;;;;;;5010365;28;20452;-85
2022/01/21 00:41:00;;;;;;;6.15;3.63;;;2.60;99.90;;;;;;5013478;28;20198;-86
2022/01/21 00:43:31;;;;;;;5.93;3.00;;;2.70;99.90;;;;;;5012292;28;20220;-85
2022/01/21 00:45:59;;;;;;;7.40;3.23;;;2.70;99.90;;;;;;5012223;28;20845;-85
2022/01/21 00:48:26;;;;;;;10.30;3.57;;;2.70;99.90;;;;;;5012732;28;20807;-85
2022/01/21 00:50:53;;;;;;;3.80;2.97;;;2.70;99.90;;;;;;5012445;28;20926;-85
2022/01/21 00:53:20;;;;;;;4.93;3.60;;;2.80;99.90;;;;;;5012941;28;20456;-84
2022/01/21 00:55:48;;;;;;;3.50;2.93;;;2.80;99.90;;;;;;5014102;28;20473;-86
2022/01/21 00:58:14;;;;;;;10.43;3.15;;;2.90;99.90;;;;;;5012209;28;20460;-86
2022/01/21 01:00:41;;;;;;;11.75;3.25;;;2.90;99.90;;;;;;5012808;28;20212;-86
2022/01/21 01:03:08;;;;;;;14.73;3.50;;;2.90;99.90;;;;;;5013281;28;20227;-86
2022/01/21 01:05:35;;;;;;;5.85;3.13;;;2.90;99.90;;;;;;5014526;28;20476;-86
2022/01/21 01:08:03;;;;;;;5.93;2.83;;;2.90;99.90;;;;;;5014347;28;20242;-86
2022/01/21 01:10:43;;;;;;;8.00;3.73;;;2.90;99.90;;;;;;5021509;28;20448;-86
2022/01/21 01:21:25;;;;;;;11.52;3.75;;;3.00;99.90;;;;;;5013584;28;20462;-86
2022/01/21 01:24:04;;;;;;;6.63;3.30;;;3.00;99.90;;;;;;5012910;28;20594;-87
2022/01/21 01:29:19;;;;;;;6.93;2.60;;;3.00;99.90;;;;;;5012959;28;20856;-87
2022/01/21 01:31:46;;;;;;;9.73;3.37;;;3.00;99.90;;;;;;5015944;28;20458;-86
2022/01/21 01:34:14;;;;;;;5.40;2.97;;;3.10;99.90;;;;;;5014010;28;20854;-86
2022/01/21 01:36:42;;;;;;;3.30;2.80;;;3.10;99.90;;;;;;5018784;28;20461;-84
2022/01/21 01:39:14;;;;;;;6.40;3.53;;;3.10;99.90;;;;;;5035920;28;20464;-83
2022/01/21 01:41:47;;;;;;;4.20;2.50;;;3.10;99.90;;;;;;5036469;28;20442;-84
2022/01/21 01:49:44;;;;;;;7.83;3.60;;;3.20;99.90;;;;;;5025423;28;20497;-85
2022/01/21 01:52:13;;;;;;;11.10;2.90;;;3.20;99.90;;;;;;5037227;28;20446;-84
2022/01/21 01:54:43;;;;;;;5.87;2.73;;;3.20;99.90;;;;;;5029504;28;20453;-86
2022/01/21 01:57:10;;;;;;;7.10;2.70;;;3.20;99.90;;;;;;5014996;28;20574;-86
2022/01/21 01:59:37;;;;;;;6.83;3.50;;;3.20;99.90;;;;;;5019179;28;20451;-86
2022/01/21 02:02:09;;;;;;;5.20;3.17;;;3.20;99.90;;;;;;5036281;28;20452;-85
2022/01/21 02:04:37;;;;;;;5.50;3.20;;;3.10;99.90;;;;;;5031081;28;20546;-86
2022/01/21 02:07:04;;;;;;;8.07;3.22;;;3.10;99.90;;;;;;5017083;28;20466;-85
2022/01/21 02:09:32;;;;;;;6.80;3.37;;;3.10;99.90;;;;;;5016422;28;20204;-85
2022/01/21 02:11:58;;;;;;;7.90;3.23;;;3.10;99.90;;;;;;5001994;28;20817;-86
2022/01/21 02:14:29;;;;;;;7.43;3.10;;;3.10;99.90;;;;;;5018167;28;20463;-86
2022/01/21 02:22:31;;;;;;;7.27;3.20;;;3.20;99.90;;;;;;5000346;28;20451;-86
2022/01/21 02:25:11;;;;;;;8.67;3.70;;;3.20;99.90;;;;;;5006193;28;21007;-86
2022/01/21 02:27:38;;;;;;;7.30;3.60;;;3.20;99.90;;;;;;5017549;28;20462;-85
2022/01/21 02:30:07;;;;;;;9.00;3.00;;;3.20;99.90;;;;;;5015680;28;20453;-86
2022/01/21 02:32:34;;;;;;;5.80;3.90;;;3.20;99.90;;;;;;5017269;28;21160;-86
2022/01/21 02:35:00;;;;;;;7.73;3.10;;;3.10;99.90;;;;;;5016294;28;20915;-86
2022/01/21 02:37:28;;;;;;;7.47;3.50;;;3.10;99.90;;;;;;5014770;28;20494;-86
2022/01/21 02:39:55;;;;;;;12.43;3.60;;;3.10;99.90;;;;;;5014142;28;20498;-87
2022/01/21 02:42:22;;;;;;;8.13;3.20;;;3.10;99.90;;;;;;5014518;28;20825;-86
2022/01/21 02:44:48;;;;;;;7.63;3.30;;;3.00;99.90;;;;;;5014138;28;20231;-85
2022/01/21 02:47:15;;;;;;;7.40;3.88;;;3.00;99.90;;;;;;5014222;28;20477;-86
2022/01/21 02:49:42;;;;;;;5.03;3.05;;;3.00;99.90;;;;;;5015480;28;20205;-84
2022/01/21 02:52:08;;;;;;;12.27;3.17;;;2.80;99.90;;;;;;5015453;28;20212;-86
2022/01/21 02:54:36;;;;;;;6.97;3.50;;;2.70;99.90;;;;;;5017257;28;20543;-85
2022/01/21 02:57:06;;;;;;;6.20;3.20;;;2.70;99.90;;;;;;5016331;28;20483;-87
2022/01/21 02:59:33;;;;;;;7.13;3.73;;;2.60;99.90;;;;;;5016513;28;20200;-85
2022/01/21 03:02:01;;;;;;;6.13;3.10;;;2.60;99.90;;;;;;5020044;28;20463;-84
2022/01/21 03:04:35;;;;;;;5.70;3.43;;;2.70;99.90;;;;;;5037127;28;20468;-84
2022/01/21 03:07:02;;;;;;;4.85;2.83;;;2.80;99.90;;;;;;5019283;28;20467;-85
2022/01/21 03:09:29;;;;;;;7.73;3.20;;;2.90;99.90;;;;;;5014695;28;20310;-85
2022/01/21 03:11:57;;;;;;;4.57;2.97;;;2.90;99.90;;;;;;5014983;28;20947;-85
2022/01/21 03:14:23;;;;;;;10.80;3.33;;;3.00;99.90;;;;;;5013699;28;20546;-85
2022/01/21 03:16:50;;;;;;;6.57;3.03;;;3.00;99.90;;;;;;5023718;28;20458;-84
2022/01/21 03:19:17;;;;;;;9.50;3.03;;;3.00;99.90;;;;;;5021888;28;20518;-84
2022/01/21 03:21:44;;;;;;;5.43;3.50;;;3.00;99.90;;;;;;5014282;28;20981;-85
2022/01/21 03:24:10;;;;;;;6.37;3.77;;;3.10;99.90;;;;;;5013837;28;20986;-85
2022/01/21 03:26:37;;;;;;;9.30;3.70;;;3.00;99.90;;;;;;5013286;28;20990;-86
2022/01/21 03:29:06;;;;;;;6.33;2.83;;;3.00;99.90;;;;;;5013683;28;20459;-86
2022/01/21 03:31:33;;;;;;;5.18;3.17;;;2.90;99.90;;;;;;5020885;28;20451;-86
2022/01/21 03:34:02;;;;;;;11.13;3.43;;;3.00;99.90;;;;;;5027751;28;20188;-86
2022/01/21 03:36:29;;;;;;;9.55;3.72;;;3.00;99.90;;;;;;5033315;28;20463;-85
2022/01/21 03:38:57;;;;;;;10.00;3.90;;;3.00;99.90;;;;;;5016661;28;20201;-85
2022/01/21 03:41:24;;;;;;;10.33;4.27;;;3.00;99.90;;;;;;5028282;28;20547;-85
2022/01/21 03:43:50;;;;;;;13.23;3.38;;;3.00;99.90;;;;;;5035310;28;20459;-85
2022/01/21 03:46:19;;;;;;;5.28;3.17;;;3.00;99.90;;;;;;5020583;28;20608;-85
2022/01/21 03:48:49;;;;;;;10.10;4.17;;;3.00;99.90;;;;;;5015503;28;20205;-85
2022/01/21 03:51:18;;;;;;;8.32;3.83;;;2.90;99.90;;;;;;5016532;28;20540;-86
2022/01/21 03:53:46;;;;;;;11.10;3.20;;;2.80;99.90;;;;;;5023284;28;20181;-84
2022/01/21 03:56:12;;;;;;;5.77;3.27;;;2.80;99.90;;;;;;5037209;28;20457;-83
2022/01/21 03:58:39;;;;;;;4.07;2.83;;;2.70;99.90;;;;;;5017252;28;20792;-85
2022/01/21 04:01:06;;;;;;;7.20;3.45;;;2.70;99.90;;;;;;5013256;28;20447;-85
2022/01/21 04:03:34;;;;;;;14.80;3.40;;;2.70;99.90;;;;;;5013899;28;20202;-85
2022/01/21 04:06:01;;;;;;;8.33;4.50;;;2.70;99.90;;;;;;5013583;28;20477;-85
2022/01/21 04:08:28;;;;;;;6.93;3.97;;;2.70;99.90;;;;;;5015799;28;20455;-85
2022/01/21 04:10:54;;;;;;;8.67;3.90;;;2.70;99.90;;;;;;5014618;28;20456;-85
2022/01/21 04:13:23;;;;;;;5.60;3.70;;;2.70;99.90;;;;;;5013742;28;20447;-85
2022/01/21 04:15:51;;;;;;;6.57;3.87;;;2.70;99.90;;;;;;5013199;28;20647;-85
2022/01/21 04:18:18;;;;;;;6.10;4.27;;;2.70;99.90;;;;;;5013400;28;20460;-85
2022/01/21 04:20:48;;;;;;;8.87;4.77;;;2.60;99.90;;;;;;5013350;28;20450;-85
2022/01/21 04:23:20;;;;;;;4.53;3.57;;;2.50;99.90;;;;;;5013559;28;20447;-85
2022/01/21 04:25:47;;;;;;;6.28;3.72;;;2.60;99.90;;;;;;5013848;28;20487;-86
2022/01/21 04:28:14;;;;;;;9.00;3.60;;;2.50;99.90;;;;;;5019025;28;20214;-85
2022/01/21 04:30:41;;;;;;;6.25;4.35;;;2.60;99.90;;;;;;5016888;28;20475;-85
2022/01/21 04:33:08;;;;;;;12.85;3.80;;;2.60;99.90;;;;;;5014336;28;20229;-85
2022/01/21 04:35:36;;;;;;;11.80;4.20;;;2.70;99.90;;;;;;5014333;28;20227;-85
2022/01/21 04:38:05;;;;;;;6.60;3.97;;;2.70;99.90;;;;;;5013549;28;20604;-85
2022/01/21 04:40:37;;;;;;;13.75;3.47;;;2.60;99.90;;;;;;5013782;28;20256;-86
2022/01/21 04:48:34;;;;;;;7.57;4.63;;;2.50;99.90;;;;;;5015414;28;20209;-85
2022/01/21 04:51:13;;;;;;;6.80;3.83;;;2.60;99.90;;;;;;5013086;28;20200;-85
2022/01/21 04:53:41;;;;;;;10.33;5.00;;;2.60;99.90;;;;;;5014851;28;20208;-84
2022/01/21 04:56:08;;;;;;;6.00;3.30;;;2.60;99.90;;;;;;5027160;28;20488;-84
2022/01/21 04:58:35;;;;;;;8.30;4.70;;;2.60;99.90;;;;;;5020772;28;20466;-85
2022/01/21 05:01:04;;;;;;;14.48;3.88;;;2.50;99.90;;;;;;5031472;28;20192;-84
2022/01/21 05:03:32;;;;;;;9.00;4.05;;;2.60;99.90;;;;;;5015960;28;20336;-85
2022/01/21 05:06:00;;;;;;;16.00;5.57;;;2.60;99.90;;;;;;5013468;28;20236;-86
2022/01/21 05:08:31;;;;;;;8.57;4.00;;;2.50;99.90;;;;;;5013140;28;20833;-86
2022/01/21 05:11:01;;;;;;;10.25;4.80;;;2.50;99.90;;;;;;5013293;28;20452;-86
2022/01/21 05:13:36;;;;;;;15.37;4.40;;;2.50;99.90;;;;;;5013075;28;20209;-85
2022/01/21 05:16:06;;;;;;;14.10;5.50;;;2.60;99.90;;;;;;5014097;28;20481;-86
2022/01/21 05:18:33;;;;;;;9.35;5.47;;;2.60;99.90;;;;;;5021699;28;20207;-86
2022/01/21 05:21:00;;;;;;;8.40;4.20;;;2.60;99.90;;;;;;5018955;28;20211;-86
2022/01/21 05:23:29;;;;;;;13.90;4.88;;;2.50;99.90;;;;;;5037998;28;20426;-84
2022/01/21 05:25:55;;;;;;;8.63;4.57;;;2.50;99.90;;;;;;5044499;28;20232;-85
2022/01/21 05:28:24;;;;;;;8.23;4.23;;;2.50;99.90;;;;;;5041665;28;20192;-85
2022/01/21 05:30:53;;;;;;;12.40;4.85;;;2.60;99.90;;;;;;5041077;28;20444;-86
2022/01/21 05:33:20;;;;;;;9.80;4.13;;;2.60;99.90;;;;;;5038548;28;20608;-84
2022/01/21 05:35:46;;;;;;;4.82;4.00;;;2.70;99.90;;;;;;5033756;28;20217;-85
2022/01/21 05:38:13;;;;;;;9.18;4.43;;;2.70;99.90;;;;;;5031808;28;20199;-85
2022/01/21 05:40:42;;;;;;;8.80;5.20;;;2.60;99.90;;;;;;5037511;28;20184;-85
2022/01/21 05:43:09;;;;;;;6.97;3.93;;;2.70;99.90;;;;;;5030322;28;20531;-86
2022/01/21 05:48:10;;;;;;;12.03;4.83;;;2.70;99.90;;;;;;5065330;28;20839;-87
2022/01/21 05:50:37;;;;;;;7.03;3.85;;;2.70;99.90;;;;;;5067758;28;20445;-87
2022/01/21 05:53:08;;;;;;;8.90;4.20;;;2.70;99.90;;;;;;5062321;28;20253;-87
2022/01/21 05:55:39;;;;;;;10.45;4.97;;;2.70;99.90;;;;;;5063645;28;20472;-88
2022/01/21 05:58:06;;;;;;;13.77;4.60;;;2.70;99.90;;;;;;5043319;28;20199;-85
2022/01/21 06:00:33;;;;;;;11.37;5.87;;;2.60;99.90;;;;;;5042696;28;20206;-87
2022/01/21 06:03:00;;;;;;;11.63;5.20;;;2.60;99.90;;;;;;5046350;28;20443;-87
2022/01/21 06:05:31;;;;;;;8.52;5.00;;;2.70;99.90;;;;;;5044523;28;20485;-87
2022/01/21 06:07:57;;;;;;;5.97;4.03;;;2.60;99.90;;;;;;5042452;28;20222;-88
2022/01/21 06:10:24;;;;;;;8.55;5.18;;;2.70;99.90;;;;;;5044195;28;20455;-87
2022/01/21 06:12:51;;;;;;;13.02;4.72;;;2.60;99.90;;;;;;5044504;28;20268;-86
2022/01/21 06:15:18;;;;;;;8.00;4.23;;;2.60;99.90;;;;;;5043221;28;20251;-86
2022/01/21 06:17:45;;;;;;;10.50;4.90;;;2.50;99.90;;;;;;5043196;28;20851;-86
2022/01/21 06:20:12;;;;;;;6.57;4.20;;;2.50;99.90;;;;;;5043444;28;20916;-87
2022/01/21 06:22:40;;;;;;;6.30;4.50;;;2.60;99.90;;;;;;5044040;28;20453;-87
2022/01/21 06:25:07;;;;;;;8.90;5.80;;;2.60;99.90;;;;;;5041390;28;20492;-88
2022/01/21 06:27:36;;;;;;;17.75;5.63;;;2.70;99.90;;;;;;5023950;28;20647;-87
2022/01/21 06:30:04;;;;;;;9.53;4.83;;;2.70;99.90;;;;;;5036093;28;20204;-87
2022/01/21 06:32:31;;;;;;;7.72;4.90;;;2.70;99.90;;;;;;5049441;28;20455;-86
2022/01/21 06:34:58;;;;;;;8.35;4.88;;;2.70;99.90;;;;;;5052364;28;20196;-87
2022/01/21 06:37:24;;;;;;;9.80;4.37;;;2.80;99.90;;;;;;5049024;28;20219;-86
2022/01/21 06:39:52;;;;;;;15.50;5.30;;;2.80;99.90;;;;;;5034674;28;20449;-86
2022/01/21 06:42:23;;;;;;;11.17;5.07;;;2.80;99.90;;;;;;5026591;28;20204;-86
2022/01/21 06:44:49;;;;;;;7.00;5.00;;;2.70;99.90;;;;;;5024888;28;20483;-85
2022/01/21 06:47:16;;;;;;;7.03;4.57;;;2.70;99.90;;;;;;5026521;28;21001;-86
2022/01/21 06:49:43;;;;;;;9.80;6.20;;;2.80;99.90;;;;;;5032031;28;20505;-86
2022/01/21 06:52:09;;;;;;;13.07;9.23;;;2.80;99.90;;;;;;5031100;28;20452;-86
2022/01/21 06:54:36;;;;;;;9.30;5.93;;;2.80;99.90;;;;;;5040802;28;20444;-86
2022/01/21 06:57:05;;;;;;;11.50;5.77;;;2.80;99.90;;;;;;5042013;28;20220;-85
2022/01/21 06:59:31;;;;;;;14.13;7.80;;;2.80;99.90;;;;;;5029026;28;20976;-85
2022/01/21 07:01:58;;;;;;;10.60;6.00;;;2.80;99.90;;;;;;5031430;28;20455;-85
2022/01/21 07:04:25;;;;;;;9.90;6.30;;;2.80;99.90;;;;;;5029871;28;20573;-84
2022/01/21 07:06:52;;;;;;;13.70;6.20;;;2.80;99.90;;;;;;5033269;28;20487;-85
2022/01/21 07:09:18;;;;;;;8.47;5.20;;;2.80;99.90;;;;;;5025756;28;20456;-85
2022/01/21 07:11:45;;;;;;;17.13;5.40;;;2.80;99.90;;;;;;5024733;28;20450;-84
2022/01/21 07:14:13;;;;;;;13.13;6.67;;;2.80;99.90;;;;;;5037279;28;20480;-84
2022/01/21 07:16:43;;;;;;;12.23;5.77;;;2.90;99.90;;;;;;5039533;28;20543;-84
2022/01/21 07:19:09;;;;;;;8.70;5.40;;;2.90;99.90;;;;;;5025885;28;20455;-84
2022/01/21 07:21:36;;;;;;;9.00;5.40;;;2.80;99.90;;;;;;5027527;28;20452;-84
2022/01/21 07:24:03;;;;;;;16.93;5.83;;;2.80;99.90;;;;;;5027241;28;20450;-84
2022/01/21 07:26:32;;;;;;;10.73;5.55;;;2.90;99.90;;;;;;5028409;28;21037;-85
2022/01/21 07:28:58;;;;;;;9.15;4.53;;;2.90;99.90;;;;;;5035249;28;20204;-84
2022/01/21 07:31:27;;;;;;;11.93;6.00;;;2.90;99.90;;;;;;5034784;28;20227;-84
2022/01/21 07:33:53;;;;;;;11.60;5.83;;;2.90;99.90;;;;;;5028851;28;20226;-84
2022/01/21 07:36:20;;;;;;;10.30;5.70;;;3.00;99.90;;;;;;5039170;28;20446;-82
2022/01/21 07:38:47;;;;;;;9.20;5.43;;;2.90;99.90;;;;;;5041129;28;20447;-84
2022/01/21 07:41:13;;;;;;;8.82;5.30;;;3.00;99.90;;;;;;5029103;28;20454;-84
2022/01/21 07:43:40;;;;;;;10.63;5.18;;;3.00;99.90;;;;;;5023291;28;20196;-84
2022/01/21 07:46:07;;;;;;;9.10;6.23;;;3.00;99.90;;;;;;5050193;28;20240;-84
2022/01/21 07:48:35;;;;;;;9.07;6.07;;;3.00;99.90;;;;;;5040887;28;20493;-84
2022/01/21 07:51:01;;;;;;;9.57;5.78;;;3.00;99.90;;;;;;5032121;28;20449;-84
2022/01/21 07:53:28;;;;;;;5.47;4.90;;;3.10;99.90;;;;;;5037944;28;20204;-84
2022/01/21 07:55:55;;;;;;;13.40;7.00;;;3.20;99.90;;;;;;5035749;28;20451;-85
2022/01/21 07:58:21;;;;;;;10.57;6.33;;;3.20;99.90;;;;;;5038495;28;20473;-84
2022/01/21 08:00:49;;;;;;;10.67;6.20;;;3.30;99.90;;;;;;5039908;28;20445;-84
2022/01/21 08:03:16;;;;;;;10.33;5.90;;;3.30;99.90;;;;;;5046682;28;20463;-84
2022/01/21 08:05:46;;;;;;;10.10;6.20;;;3.30;99.90;;;;;;5041793;28;20480;-82
2022/01/21 08:08:13;;;;;;;8.40;5.70;;;3.40;99.90;;;;;;5047852;28;20200;-83
2022/01/21 08:10:40;;;;;;;17.63;6.27;;;3.50;99.90;;;;;;5053104;28;20451;-86
2022/01/21 08:13:07;;;;;;;10.10;6.10;;;3.60;99.90;;;;;;5046300;28;20466;-85
2022/01/21 08:15:33;;;;;;;16.53;7.00;;;3.70;99.90;;;;;;5048808;28;20448;-85
2022/01/21 08:18:00;;;;;;;14.17;5.90;;;3.80;99.90;;;;;;5034364;28;20469;-84
2022/01/21 08:20:28;;;;;;;11.63;5.77;;;3.90;99.90;;;;;;5036259;28;20470;-83
2022/01/21 08:22:56;;;;;;;14.33;6.40;;;4.00;99.90;;;;;;5032861;28;20451;-84
2022/01/21 08:25:23;;;;;;;9.37;5.77;;;4.00;99.90;;;;;;5031543;28;20480;-84
2022/01/21 08:27:49;;;;;;;10.50;6.10;;;4.00;99.90;;;;;;5042365;28;20486;-83
2022/01/21 08:30:16;;;;;;;13.50;6.27;;;4.10;99.90;;;;;;5035864;28;20444;-84
2022/01/21 08:32:43;;;;;;;22.43;6.83;;;4.10;99.90;;;;;;5040677;28;20731;-84
2022/01/21 08:35:11;;;;;;;7.73;5.77;;;4.10;99.90;;;;;;5040163;28;20453;-84
2022/01/21 08:37:38;;;;;;;8.37;5.10;;;4.10;99.90;;;;;;5047452;28;20470;-84
2022/01/21 08:40:08;;;;;;;9.77;6.37;;;4.10;99.90;;;;;;5056641;28;20456;-83
2022/01/21 08:42:35;;;;;;;15.47;5.43;;;4.10;99.90;;;;;;5054515;28;20444;-83
2022/01/21 08:45:02;;;;;;;13.60;5.63;;;4.10;99.90;;;;;;5056098;28;20483;-83
2022/01/21 08:47:28;;;;;;;10.43;5.77;;;4.10;99.90;;;;;;5048265;28;20479;-85
2022/01/21 08:49:56;;;;;;;15.00;5.50;;;4.10;99.90;;;;;;5033747;28;20428;-85
2022/01/21 08:52:27;;;;;;;11.80;5.57;;;4.10;99.90;;;;;;5033009;28;20453;-85
2022/01/21 08:54:53;;;;;;;9.40;5.70;;;4.10;99.90;;;;;;5034459;28;20448;-86
2022/01/21 08:57:21;;;;;;;15.30;6.70;;;4.10;99.90;;;;;;5033980;28;20517;-86
2022/01/21 08:59:49;;;;;;;9.00;6.77;;;4.20;99.90;;;;;;5044057;28;20448;-83
2022/01/21 09:02:18;;;;;;;17.63;7.63;;;4.30;99.90;;;;;;5041214;28;20448;-85
2022/01/21 09:04:45;;;;;;;11.10;8.40;;;4.30;99.90;;;;;;5040520;28;20651;-89
2022/01/21 09:07:11;;;;;;;14.00;6.70;;;4.40;99.90;;;;;;5039879;28;20492;-84
2022/01/21 09:09:38;;;;;;;14.20;6.30;;;4.50;99.90;;;;;;5045634;28;20456;-83
2022/01/21 09:12:06;;;;;;;9.53;7.23;;;4.50;99.90;;;;;;5040735;28;20444;-84
2022/01/21 09:14:34;;;;;;;8.90;7.17;;;4.50;99.90;;;;;;5057512;28;20445;-83
2022/01/21 09:17:01;;;;;;;12.00;7.90;;;4.50;99.90;;;;;;5043294;28;20465;-84
2022/01/21 09:19:28;;;;;;;12.60;6.77;;;4.60;99.90;;;;;;5040594;28;20826;-84
2022/01/21 09:21:56;;;;;;;9.17;6.17;;;4.70;99.70;;;;;;5039787;28;20459;-84
2022/01/21 09:24:23;;;;;;;13.13;7.87;;;4.80;99.50;;;;;;5033116;28;20491;-84
2022/01/21 09:26:50;;;;;;;18.10;7.17;;;4.80;99.50;;;;;;5046056;28;20502;-85
2022/01/21 09:29:17;;;;;;;14.43;8.00;;;5.00;99.40;;;;;;5039271;28;20811;-84
2022/01/21 09:31:45;;;;;;;10.70;6.30;;;5.10;99.20;;;;;;5035445;28;20873;-84
2022/01/21 09:34:12;;;;;;;11.37;6.13;;;5.30;99.00;;;;;;5036699;28;20465;-84
2022/01/21 09:36:39;;;;;;;8.93;5.83;;;5.30;98.50;;;;;;5036970;28;20843;-85
2022/01/21 09:39:06;;;;;;;13.07;7.00;;;5.30;98.10;;;;;;5038390;28;20452;-86
2022/01/21 09:41:34;;;;;;;11.20;7.43;;;5.30;98.00;;;;;;5054159;28;20440;-85
2022/01/21 09:44:03;;;;;;;12.33;7.30;;;5.20;97.80;;;;;;5059993;28;20437;-85
2022/01/21 09:46:34;;;;;;;14.83;7.17;;;5.30;97.90;;;;;;5042037;28;20487;-86
2022/01/21 09:49:19;;;;;;;12.43;7.40;;;5.30;97.90;;;;;;5038879;28;20491;-84
2022/01/21 09:51:47;;;;;;;15.23;7.60;;;5.40;97.70;;;;;;5040164;28;20448;-83
2022/01/21 09:54:14;;;;;;;15.90;6.63;;;5.40;97.90;;;;;;5054847;28;20448;-85
2022/01/21 09:56:45;;;;;;;10.60;7.07;;;5.30;97.60;;;;;;5041031;28;20849;-84
2022/01/21 09:59:12;;;;;;;18.40;6.60;;;5.20;98.10;;;;;;5039279;28;20536;-84
2022/01/21 10:01:39;;;;;;;19.50;6.60;;;5.30;98.40;;;;;;5038588;28;20455;-84
2022/01/21 10:04:08;;;;;;;12.83;7.17;;;5.50;97.80;;;;;;5019293;28;20519;-85
2022/01/21 10:06:36;;;;;;;10.67;6.27;;;5.80;97.30;;;;;;5035063;28;20907;-86
2022/01/21 10:09:04;;;;;;;11.73;7.70;;;5.90;96.90;;;;;;5037037;28;20476;-85
2022/01/21 10:11:30;;;;;;;12.63;8.43;;;5.90;96.70;;;;;;5037400;28;20444;-85
2022/01/21 10:13:57;;;;;;;10.67;7.57;;;5.90;96.60;;;;;;5036492;28;20445;-85
2022/01/21 10:16:24;;;;;;;10.77;6.80;;;6.00;96.70;;;;;;5038943;28;20473;-86
2022/01/21 10:19:07;;;;;;;13.80;6.30;;;6.10;96.60;;;;;;5037135;28;20450;-84
2022/01/21 10:21:38;;;;;;;9.17;6.30;;;6.50;96.10;;;;;;5035878;28;20449;-84
2022/01/21 10:24:07;;;;;;;12.33;6.77;;;6.60;95.40;;;;;;5042402;28;20463;-84
2022/01/21 10:26:34;;;;;;;12.27;6.37;;;6.50;95.20;;;;;;5049415;28;20499;-85
2022/01/21 10:29:01;;;;;;;10.50;7.33;;;6.50;95.10;;;;;;5047467;28;20453;-83
2022/01/21 10:31:30;;;;;;;9.43;5.73;;;6.40;95.00;;;;;;5057542;28;20445;-84
2022/01/21 10:34:02;;;;;;;9.57;6.43;;;6.20;95.20;;;;;;5047252;28;20453;-84
2022/01/21 10:36:32;;;;;;;13.83;6.70;;;6.10;95.30;;;;;;5040367;28;20469;-85
2022/01/21 10:39:09;;;;;;;10.43;7.07;;;6.00;95.40;;;;;;5048327;28;20445;-85
2022/01/21 10:41:41;;;;;;;10.93;6.13;;;5.80;95.70;;;;;;5048202;28;20452;-85
2022/01/21 10:44:10;;;;;;;19.40;6.60;;;5.60;95.90;;;;;;5054649;28;20442;-83
2022/01/21 10:46:38;;;;;;;9.77;5.60;;;5.60;96.30;;;;;;5053931;28;20515;-84
2022/01/21 10:49:06;;;;;;;9.13;7.87;;;5.60;96.30;;;;;;5055910;28;20449;-85
2022/01/21 10:51:35;;;;;;;14.87;6.40;;;5.80;96.40;;;;;;5055191;28;20448;-84
2022/01/21 10:54:15;;;;;;;21.93;6.93;;;5.90;96.20;;;;;;5051128;28;20509;-85
2022/01/21 10:57:01;;;;;;;14.90;8.03;;;6.20;96.00;;;;;;5044430;28;20489;-86
2022/01/21 10:59:48;;;;;;;11.70;7.10;;;6.50;95.70;;;;;;5042660;28;20453;-84
2022/01/21 11:02:15;;;;;;;13.33;6.10;;;6.70;95.20;;;;;;5045390;28;20810;-85
2022/01/21 11:04:43;;;;;;;13.43;8.23;;;6.90;94.70;;;;;;5043259;28;20445;-84
2022/01/21 11:07:12;;;;;;;15.73;6.77;;;6.90;94.50;;;;;;5043409;28;20477;-86
2022/01/21 11:09:44;;;;;;;10.17;6.47;;;6.90;94.30;;;;;;5042095;28;20803;-84
2022/01/21 11:12:14;;;;;;;7.20;4.70;;;7.00;93.80;;;;;;5037383;28;20816;-84
2022/01/21 11:14:55;;;;;;;12.57;5.63;;;6.70;93.50;;;;;;5039220;28;20822;-85
2022/01/21 11:17:22;;;;;;;14.93;7.03;;;6.80;93.80;;;;;;5052253;28;20496;-83
2022/01/21 11:20:03;;;;;;;10.57;5.97;;;6.80;93.80;;;;;;5046835;28;20449;-84
2022/01/21 11:22:30;;;;;;;12.07;5.97;;;6.60;93.50;;;;;;5047875;28;20449;-85
2022/01/21 11:24:59;;;;;;;9.90;6.90;;;6.40;93.90;;;;;;5048445;28;20438;-87
2022/01/21 11:27:27;;;;;;;13.73;6.33;;;6.30;94.10;;;;;;5045678;28;20469;-86
2022/01/21 11:29:54;;;;;;;9.13;4.90;;;6.40;94.30;;;;;;5048280;28;20501;-84
2022/01/21 11:32:21;;;;;;;13.53;6.73;;;6.40;94.00;;;;;;5048668;28;20548;-85
2022/01/21 11:34:49;;;;;;;16.73;8.80;;;6.30;93.90;;;;;;5047532;28;20457;-86
2022/01/21 11:37:16;;;;;;;11.07;5.67;;;6.30;94.30;;;;;;5046452;28;20462;-85
2022/01/21 11:39:44;;;;;;;12.63;5.60;;;6.20;94.30;;;;;;5050138;28;20523;-85
2022/01/21 11:42:14;;;;;;;11.00;5.00;;;6.20;94.30;;;;;;5045921;28;20449;-86
2022/01/21 11:44:52;;;;;;;7.40;4.90;;;6.10;94.10;;;;;;5044448;28;20445;-85
2022/01/21 11:47:38;;;;;;;14.10;6.23;;;6.10;94.00;;;;;;5072192;22;20503;-89
2022/01/21 11:50:06;;;;;;;9.07;4.67;;;6.10;93.80;;;;;;5086908;28;20455;-89
2022/01/21 11:52:44;;;;;;;11.83;4.80;;;6.00;94.20;;;;;;5090924;28;20451;-88
2022/01/21 11:55:30;;;;;;;9.70;5.23;;;6.00;94.30;;;;;;5104698;28;20472;-90
2022/01/21 11:58:13;;;;;;;13.10;5.47;;;6.00;94.40;;;;;;5068442;28;20467;-89
2022/01/21 12:00:41;;;;;;;8.80;4.53;;;5.90;94.20;;;;;;5072891;28;20446;-89
2022/01/21 12:03:08;;;;;;;11.73;4.33;;;5.80;94.30;;;;;;5080229;28;20528;-89
2022/01/21 12:05:36;;;;;;;12.23;4.80;;;5.70;94.30;;;;;;5066129;28;20459;-89
2022/01/21 12:08:05;;;;;;;11.10;5.30;;;5.60;94.40;;;;;;5076270;28;20490;-88
2022/01/21 12:10:38;;;;;;;10.67;4.00;;;5.60;94.60;;;;;;5081309;28;20435;-89
2022/01/21 12:13:10;;;;;;;6.50;4.27;;;5.50;94.70;;;;;;5079451;28;20447;-87
2022/01/21 12:19:11;;;;;;;12.47;4.07;;;5.50;95.20;;;;;;5059292;28;20479;-89
2022/01/21 12:21:41;;;;;;;11.43;4.90;;;5.50;95.30;;;;;;5064424;28;20467;-88
2022/01/21 12:24:08;;;;;;;10.03;3.60;;;5.50;95.50;;;;;;5060697;28;20505;-88
2022/01/21 12:26:36;;;;;;;9.27;3.70;;;5.50;95.00;;;;;;5062587;28;20551;-88
2022/01/21 12:29:24;;;;;;;5.87;3.63;;;5.50;95.20;;;;;;5060375;28;20439;-89
2022/01/21 12:31:58;;;;;;;10.63;3.67;;;5.60;95.10;;;;;;5072693;28;20423;-89
2022/01/21 12:34:27;;;;;;;10.73;4.20;;;5.60;95.10;;;;;;5076835;28;20455;-88
2022/01/21 12:36:55;;;;;;;10.80;4.97;;;5.60;95.10;;;;;;5086891;28;20462;-89
2022/01/21 12:39:42;;;;;;;9.13;4.17;;;5.70;95.00;;;;;;5068337;28;20998;-90
2022/01/21 12:42:28;;;;;;;10.50;3.90;;;5.80;94.90;;;;;;5068362;28;20435;-88
2022/01/21 12:44:57;;;;;;;11.20;4.13;;;5.80;95.00;;;;;;5066435;28;20540;-89
2022/01/21 12:47:31;;;;;;;5.80;3.27;;;5.80;95.00;;;;;;5077613;28;20483;-89
2022/01/21 12:50:05;;;;;;;8.93;4.30;;;5.80;94.80;;;;;;5082263;28;20474;-88
2022/01/21 12:52:45;;;;;;;10.27;3.90;;;5.80;94.90;;;;;;5064761;28;20516;-87
2022/01/21 12:58:04;;;;;;;13.83;6.13;;;5.80;95.10;;;;;;5077843;28;20466;-88
2022/01/21 13:00:31;;;;;;;12.00;6.13;;;5.80;95.10;;;;;;5076398;28;20455;-89
2022/01/21 13:03:05;;;;;;;12.93;4.50;;;5.90;95.20;;;;;;5068054;28;20478;-88
2022/01/21 13:05:40;;;;;;;8.57;3.37;;;5.90;95.60;;;;;;5072911;28;20930;-88
2022/01/21 13:08:15;;;;;;;9.87;4.13;;;5.90;95.30;;;;;;5077820;28;20494;-88
2022/01/21 13:10:42;;;;;;;10.00;3.30;;;5.80;95.20;;;;;;5076403;28;20472;-88
2022/01/21 13:13:21;;;;;;;5.30;2.70;;;5.70;95.30;;;;;;5062277;28;20451;-88
2022/01/21 13:15:50;;;;;;;8.97;4.90;;;5.80;95.40;;;;;;5069756;28;20436;-88
2022/01/21 13:18:22;;;;;;;7.23;3.90;;;5.80;95.40;;;;;;5075810;28;20467;-88
2022/01/21 13:20:51;;;;;;;11.03;4.13;;;5.80;95.50;;;;;;5056014;28;20449;-88
2022/01/21 13:23:39;;;;;;;8.30;3.40;;;5.80;95.50;;;;;;5062431;28;20450;-88
2022/01/21 13:26:14;;;;;;;8.63;4.47;;;5.80;95.30;;;;;;5063536;28;20457;-88
2022/01/21 13:29:06;;;;;;;5.83;3.80;;;5.80;95.20;;;;;;5074139;28;20482;-87
2022/01/21 13:31:35;;;;;;;8.77;3.90;;;5.80;95.30;;;;;;5071859;28;20447;-88
2022/01/21 13:34:13;;;;;;;10.07;3.70;;;5.80;95.40;;;;;;5090363;28;20452;-88
2022/01/21 13:36:46;;;;;;;7.23;2.93;;;5.90;95.20;;;;;;5062299;28;20571;-88
2022/01/21 13:39:16;;;;;;;10.13;4.00;;;5.90;95.10;;;;;;5053851;28;20452;-88
2022/01/21 13:41:50;;;;;;;9.70;2.80;;;5.90;95.10;;;;;;5055443;28;20544;-88
2022/01/21 13:44:28;;;;;;;10.00;3.27;;;5.90;95.20;;;;;;5075099;28;20453;-88
2022/01/21 13:46:57;;;;;;;4.97;2.50;;;5.70;95.30;;;;;;5062269;28;20502;-88
2022/01/21 13:49:27;;;;;;;6.23;3.10;;;5.70;95.40;;;;;;5055615;28;20444;-88